createdAt,value
2023-02-15T00:00:28.284Z,966.3690796
2023-02-15T00:01:28.746Z,966.2963867
2023-02-15T00:02:29.254Z,966.3165894
2023-02-15T00:03:29.747Z,966.3364258
2023-02-15T00:04:30.160Z,966.2984619
2023-02-15T00:05:30.661Z,966.2879639
2023-02-15T00:06:31.086Z,966.3164673
2023-02-15T00:07:32.342Z,966.2756348
2023-02-15T00:08:32.917Z,966.2653809
2023-02-15T00:09:33.410Z,966.3078613
2023-02-15T00:10:34.512Z,966.2728271
2023-02-15T00:11:35.055Z,966.2454834
2023-02-15T00:12:35.554Z,966.2924805
2023-02-15T00:13:36.166Z,966.2924805
2023-02-15T00:14:36.690Z,966.3007813
2023-02-15T00:15:37.278Z,966.2913208
2023-02-15T00:16:37.875Z,966.2670288
2023-02-15T00:17:39.040Z,966.2528076
2023-02-15T00:18:40.265Z,966.2490845
2023-02-15T00:19:41.250Z,966.2458496
2023-02-15T00:20:41.733Z,966.2662354
2023-02-15T00:21:42.177Z,966.2697144
2023-02-15T00:22:43.315Z,966.284668
2023-02-15T00:23:43.940Z,966.2943115
2023-02-15T00:24:44.411Z,966.2763062
2023-02-15T00:25:44.979Z,966.3001709
2023-02-15T00:26:45.601Z,966.2848511
2023-02-15T00:27:46.791Z,966.2737427
2023-02-15T00:28:47.283Z,966.2518921
2023-02-15T00:29:47.832Z,966.2544556
2023-02-15T00:30:48.724Z,966.2888794
2023-02-15T00:31:49.276Z,966.2907715
2023-02-15T00:32:49.636Z,966.2745361
2023-02-15T00:33:50.129Z,966.2938843
2023-02-15T00:34:50.630Z,966.3150024
2023-02-15T00:35:51.116Z,966.2851563
2023-02-15T00:36:51.597Z,966.284668
2023-02-15T00:37:52.774Z,966.2539063
2023-02-15T00:38:53.299Z,966.2434082
2023-02-15T00:39:53.978Z,966.2467041
2023-02-15T00:40:54.517Z,966.2156982
2023-02-15T00:41:54.948Z,966.2397461
2023-02-15T00:42:55.485Z,966.2181396
2023-02-15T00:44:27.270Z,966.1906128
2023-02-15T00:45:27.833Z,966.2240601
2023-02-15T00:46:28.372Z,966.2556152
2023-02-15T00:47:28.846Z,966.2146606
2023-02-15T00:48:30.006Z,966.2513428
2023-02-15T00:49:30.398Z,966.2137451
2023-02-15T00:50:30.912Z,966.2120361
2023-02-15T00:51:31.486Z,966.2331543
2023-02-15T00:52:32.036Z,966.2173462
2023-02-15T00:53:32.585Z,966.2073975
2023-02-15T00:54:33.011Z,966.2095337
2023-02-15T00:55:33.534Z,966.1715698
2023-02-15T00:56:34.044Z,966.2009277
2023-02-15T00:57:35.379Z,966.2041626
2023-02-15T00:58:36.763Z,966.2393799
2023-02-15T00:59:37.263Z,966.2318726
2023-02-15T01:00:37.726Z,966.2084961
2023-02-15T01:01:38.198Z,966.2125244
2023-02-15T01:02:38.747Z,966.2420044
2023-02-15T01:03:39.198Z,966.2140503
2023-02-15T01:04:39.745Z,966.2374878
2023-02-15T01:05:40.103Z,966.2321777
2023-02-15T01:06:40.846Z,966.2228394
2023-02-15T01:07:41.353Z,966.2206421
2023-02-15T01:08:41.820Z,966.2352905
2023-02-15T01:09:42.320Z,966.2194824
2023-02-15T01:10:42.864Z,966.2210693
2023-02-15T01:11:43.298Z,966.2145386
2023-02-15T01:12:43.789Z,966.2383423
2023-02-15T01:13:44.332Z,966.2174072
2023-02-15T01:14:44.782Z,966.1992188
2023-02-15T01:15:45.301Z,966.1986084
2023-02-15T01:16:45.757Z,966.2223511
2023-02-15T01:17:46.883Z,966.2276611
2023-02-15T01:18:47.411Z,966.2407837
2023-02-15T01:19:48.784Z,966.2485352
2023-02-15T01:20:49.291Z,966.2672729
2023-02-15T01:21:49.687Z,966.2463989
2023-02-15T01:22:50.087Z,966.2404785
2023-02-15T01:23:50.639Z,966.2512207
2023-02-15T01:24:51.143Z,966.2409668
2023-02-15T01:25:51.579Z,966.2706909
2023-02-15T01:26:52.155Z,966.2243652
2023-02-15T01:27:53.285Z,966.2340698
2023-02-15T01:28:53.832Z,966.1992188
2023-02-15T01:29:54.452Z,966.2095947
2023-02-15T01:30:55.050Z,966.2362671
2023-02-15T01:32:26.826Z,966.2422485
2023-02-15T01:33:27.268Z,966.2097168
2023-02-15T01:34:27.730Z,966.2164917
2023-02-15T01:35:28.308Z,966.2284546
2023-02-15T01:36:28.781Z,966.2548218
2023-02-15T01:37:29.289Z,966.2307739
2023-02-15T01:38:30.480Z,966.2426758
2023-02-15T01:39:30.946Z,966.2418823
2023-02-15T01:40:31.494Z,966.220459
2023-02-15T01:41:31.943Z,966.1995239
2023-02-15T01:42:32.412Z,966.2318726
2023-02-15T01:43:32.848Z,966.138916
2023-02-15T01:44:33.274Z,966.192627
2023-02-15T01:45:33.804Z,966.1773682
2023-02-15T01:46:34.313Z,966.1623535
2023-02-15T01:47:35.315Z,966.1702881
2023-02-15T01:48:36.777Z,966.137207
2023-02-15T01:49:37.180Z,966.1907959
2023-02-15T01:50:37.732Z,966.1813965
2023-02-15T01:51:38.317Z,966.1079102
2023-02-15T01:52:38.760Z,966.1292114
2023-02-15T01:53:39.206Z,966.1529541
2023-02-15T01:54:39.708Z,966.1220093
2023-02-15T01:55:40.854Z,966.1187744
2023-02-15T01:56:41.341Z,966.0949097
2023-02-15T01:57:41.799Z,966.0970459
2023-02-15T01:58:43.007Z,966.0935059
2023-02-15T01:59:43.423Z,966.0814209
2023-02-15T02:00:43.938Z,966.1326294
2023-02-15T02:01:44.426Z,966.0829468
2023-02-15T02:02:44.895Z,966.1173706
2023-02-15T02:03:45.340Z,966.1352539
2023-02-15T02:04:45.817Z,966.0632935
2023-02-15T02:05:46.269Z,966.0761108
2023-02-15T02:06:46.825Z,966.0443115
2023-02-15T02:07:47.311Z,966.0761108
2023-02-15T02:08:48.491Z,966.0928345
2023-02-15T02:09:49.009Z,966.0584106
2023-02-15T02:10:49.408Z,966.052002
2023-02-15T02:11:49.936Z,966.0639648
2023-02-15T02:12:50.409Z,966.0717163
2023-02-15T02:13:50.877Z,966.0925903
2023-02-15T02:14:51.329Z,966.0292969
2023-02-15T02:15:51.849Z,966.0714111
2023-02-15T02:16:52.304Z,966.0142212
2023-02-15T02:17:53.287Z,966.0427856
2023-02-15T02:18:54.270Z,965.9981079
2023-02-15T02:20:25.331Z,966.0334473
2023-02-15T02:21:25.753Z,966.0175781
2023-02-15T02:22:26.354Z,965.9414673
2023-02-15T02:23:26.840Z,965.9302368
2023-02-15T02:24:27.271Z,966
2023-02-15T02:25:27.809Z,965.9419556
2023-02-15T02:26:28.266Z,965.96521
2023-02-15T02:27:28.791Z,965.9099121
2023-02-15T02:28:29.791Z,965.9035034
2023-02-15T02:29:30.271Z,965.9202881
2023-02-15T02:30:30.909Z,965.9015503
2023-02-15T02:31:31.296Z,965.9124756
2023-02-15T02:32:31.778Z,965.8713989
2023-02-15T02:33:32.239Z,965.9082642
2023-02-15T02:34:32.731Z,965.9087524
2023-02-15T02:35:33.204Z,965.8939819
2023-02-15T02:36:33.637Z,965.9052124
2023-02-15T02:37:34.153Z,965.9161987
2023-02-15T02:38:35.287Z,965.9180298
2023-02-15T02:39:35.695Z,965.9707031
2023-02-15T02:40:36.178Z,965.9210815
2023-02-15T02:41:36.610Z,965.9573975
2023-02-15T02:42:37.027Z,965.9418945
2023-02-15T02:43:37.585Z,965.9771118
2023-02-15T02:44:38.014Z,965.9221191
2023-02-15T02:45:38.555Z,965.9213867
2023-02-15T02:46:39.096Z,965.9168701
2023-02-15T02:47:39.512Z,965.9703369
2023-02-15T02:48:40.787Z,965.9701538
2023-02-15T02:49:41.219Z,965.8894653
2023-02-15T02:50:41.776Z,965.9014893
2023-02-15T02:51:42.243Z,965.8864136
2023-02-15T02:52:42.661Z,965.888916
2023-02-15T02:53:43.223Z,965.8765869
2023-02-15T02:54:43.666Z,965.8951416
2023-02-15T02:55:44.128Z,965.8705444
2023-02-15T02:56:44.606Z,965.8726807
2023-02-15T02:57:45.024Z,965.8745117
2023-02-15T02:58:46.318Z,965.8950195
2023-02-15T02:59:46.805Z,965.8706055
2023-02-15T03:00:47.326Z,965.8449097
2023-02-15T03:01:47.990Z,965.8560791
2023-02-15T03:02:48.439Z,965.8781738
2023-02-15T03:03:48.934Z,965.8712769
2023-02-15T03:04:49.371Z,965.8091431
2023-02-15T03:05:49.818Z,965.8748169
2023-02-15T03:06:50.307Z,965.8723145
2023-02-15T03:07:50.714Z,965.8833008
2023-02-15T03:08:51.843Z,965.8673706
2023-02-15T03:09:52.206Z,965.8616943
2023-02-15T03:10:52.622Z,965.8894653
2023-02-15T03:11:53.152Z,965.8740845
2023-02-15T03:12:53.596Z,965.897522
2023-02-15T03:14:24.572Z,965.9084473
2023-02-15T03:15:25.043Z,965.8521118
2023-02-15T03:16:25.501Z,965.8526001
2023-02-15T03:17:25.926Z,965.821106
2023-02-15T03:18:26.996Z,965.8815918
2023-02-15T03:19:27.452Z,965.8244629
2023-02-15T03:20:27.915Z,965.8509521
2023-02-15T03:21:28.331Z,965.8465576
2023-02-15T03:22:28.927Z,965.8140869
2023-02-15T03:23:29.292Z,965.8239136
2023-02-15T03:24:29.771Z,965.828186
2023-02-15T03:25:30.298Z,965.8620605
2023-02-15T03:26:30.702Z,965.8861084
2023-02-15T03:27:31.181Z,965.8493652
2023-02-15T03:28:31.641Z,965.881958
2023-02-15T03:29:32.988Z,965.8484497
2023-02-15T03:30:33.511Z,965.8683472
2023-02-15T03:31:34.047Z,965.8897095
2023-02-15T03:32:34.425Z,965.8591919
2023-02-15T03:33:34.851Z,965.8588867
2023-02-15T03:34:35.275Z,965.8674316
2023-02-15T03:35:35.770Z,965.8754883
2023-02-15T03:36:36.231Z,965.8779907
2023-02-15T03:37:37.502Z,965.8290405
2023-02-15T03:38:38.035Z,965.8556519
2023-02-15T03:39:39.473Z,965.8512573
2023-02-15T03:40:39.898Z,965.8618774
2023-02-15T03:41:40.719Z,965.8387451
2023-02-15T03:42:41.191Z,965.8884277
2023-02-15T03:43:41.588Z,965.8624878
2023-02-15T03:44:42.033Z,965.8685913
2023-02-15T03:45:42.463Z,965.8555298
2023-02-15T03:46:42.922Z,965.9035645
2023-02-15T03:47:43.332Z,965.918457
2023-02-15T03:48:44.491Z,965.8635864
2023-02-15T03:49:44.973Z,965.8925171
2023-02-15T03:50:46.006Z,965.9051514
2023-02-15T03:51:46.486Z,965.897644
2023-02-15T03:52:46.972Z,965.9202881
2023-02-15T03:53:47.420Z,965.8980713
2023-02-15T03:54:47.925Z,965.9310913
2023-02-15T03:55:48.355Z,965.9612427
2023-02-15T03:56:48.810Z,965.8751831
2023-02-15T03:57:49.262Z,965.9053345
2023-02-15T03:58:49.681Z,965.9286499
2023-02-15T03:59:50.972Z,965.9120483
2023-02-15T04:00:51.531Z,965.9103394
2023-02-15T04:01:51.960Z,965.9142456
2023-02-15T04:02:52.494Z,965.9141235
2023-02-15T04:03:52.831Z,965.9508057
2023-02-15T04:05:23.881Z,965.9338379
2023-02-15T04:06:24.415Z,965.9209595
2023-02-15T04:07:24.826Z,965.9494019
2023-02-15T04:08:25.308Z,965.9508057
2023-02-15T04:09:26.770Z,965.9381104
2023-02-15T04:10:27.179Z,965.9065552
2023-02-15T04:11:27.737Z,965.923584
2023-02-15T04:12:28.172Z,965.9160156
2023-02-15T04:13:28.659Z,965.8850708
2023-02-15T04:14:29.107Z,965.87854
2023-02-15T04:15:29.530Z,965.9238281
2023-02-15T04:16:31.297Z,965.882019
2023-02-15T04:17:30.417Z,965.8768921
2023-02-15T04:18:30.932Z,965.8704834
2023-02-15T04:19:32.280Z,965.8384399
2023-02-15T04:20:32.668Z,965.8261108
2023-02-15T04:21:33.182Z,965.8297119
2023-02-15T04:22:33.604Z,965.8112793
2023-02-15T04:23:34.134Z,965.8605957
2023-02-15T04:24:34.587Z,965.8654785
2023-02-15T04:25:35.041Z,965.8388062
2023-02-15T04:26:35.521Z,965.8673706
2023-02-15T04:27:35.979Z,965.8675537
2023-02-15T04:28:36.412Z,965.9025269
2023-02-15T04:29:37.769Z,965.8933105
2023-02-15T04:30:38.204Z,965.9103394
2023-02-15T04:31:38.825Z,965.8881226
2023-02-15T04:32:39.140Z,965.8931274
2023-02-15T04:33:39.629Z,965.9031372
2023-02-15T04:34:40.113Z,965.8922119
2023-02-15T04:35:40.746Z,965.9121704
2023-02-15T04:36:41.176Z,965.9078369
2023-02-15T04:37:41.592Z,965.8699341
2023-02-15T04:38:42.150Z,965.8950195
2023-02-15T04:39:43.466Z,965.94104
2023-02-15T04:40:44.800Z,965.8778687
2023-02-15T04:41:45.198Z,965.8822021
2023-02-15T04:42:45.626Z,965.8745117
2023-02-15T04:43:46.196Z,965.8696899
2023-02-15T04:44:46.600Z,965.828125
2023-02-15T04:45:47.120Z,965.8292236
2023-02-15T04:46:47.533Z,965.8431396
2023-02-15T04:47:47.959Z,965.8431396
2023-02-15T04:48:49.083Z,965.821167
2023-02-15T04:49:49.470Z,965.7926636
2023-02-15T04:50:49.976Z,965.8352051
2023-02-15T04:51:50.453Z,965.8115845
2023-02-15T04:52:50.897Z,965.7810669
2023-02-15T04:53:51.408Z,965.8214111
2023-02-15T04:54:51.857Z,965.8233032
2023-02-15T04:55:52.269Z,965.7809448
2023-02-15T04:57:23.352Z,965.7971802
2023-02-15T04:58:23.763Z,965.7973633
2023-02-15T04:59:24.335Z,965.7872925
2023-02-15T05:00:25.276Z,965.7806396
2023-02-15T05:01:25.768Z,965.7907104
2023-02-15T05:02:26.129Z,965.7911987
2023-02-15T05:03:26.549Z,965.7493896
2023-02-15T05:04:27.228Z,965.7672119
2023-02-15T05:05:27.524Z,965.7554932
2023-02-15T05:06:28.015Z,965.7198486
2023-02-15T05:07:28.497Z,965.756897
2023-02-15T05:08:29.094Z,965.7352905
2023-02-15T05:09:30.254Z,965.8016968
2023-02-15T05:10:30.905Z,965.8067017
2023-02-15T05:11:32.386Z,965.7834473
2023-02-15T05:12:32.870Z,965.743042
2023-02-15T05:13:33.347Z,965.7782593
2023-02-15T05:14:33.896Z,965.7443848
2023-02-15T05:15:34.448Z,965.7601318
2023-02-15T05:16:34.871Z,965.743042
2023-02-15T05:17:35.651Z,965.7451782
2023-02-15T05:18:36.773Z,965.7579956
2023-02-15T05:19:37.820Z,965.7299805
2023-02-15T05:20:38.220Z,965.7029419
2023-02-15T05:21:38.617Z,965.7062988
2023-02-15T05:22:39.148Z,965.6954956
2023-02-15T05:23:39.572Z,965.7267456
2023-02-15T05:24:40.055Z,965.7034302
2023-02-15T05:25:40.740Z,965.7145386
2023-02-15T05:26:41.184Z,965.7154541
2023-02-15T05:27:41.728Z,965.7056274
2023-02-15T05:28:42.158Z,965.6817017
2023-02-15T05:29:43.351Z,965.6920166
2023-02-15T05:30:44.004Z,965.6856079
2023-02-15T05:31:44.430Z,965.727478
2023-02-15T05:32:44.939Z,965.7067871
2023-02-15T05:33:45.210Z,965.7003784
2023-02-15T05:34:45.715Z,965.7196655
2023-02-15T05:35:46.116Z,965.7265625
2023-02-15T05:36:46.523Z,965.7416992
2023-02-15T05:37:47.000Z,965.7497559
2023-02-15T05:38:47.416Z,965.77948
2023-02-15T05:39:48.786Z,965.798645
2023-02-15T05:40:50.196Z,965.7973633
2023-02-15T05:41:49.726Z,965.7803345
2023-02-15T05:42:50.197Z,965.8058472
2023-02-15T05:43:50.624Z,965.7786865
2023-02-15T05:44:51.134Z,965.7771606
2023-02-15T05:45:51.584Z,965.7641602
2023-02-15T05:47:22.652Z,965.822876
2023-02-15T05:48:23.183Z,965.8169556
2023-02-15T05:49:24.453Z,965.8317261
2023-02-15T05:50:25.513Z,965.7938843
2023-02-15T05:51:25.935Z,965.8353271
2023-02-15T05:52:26.382Z,965.8048706
2023-02-15T05:53:26.818Z,965.7990112
2023-02-15T05:54:27.258Z,965.8134155
2023-02-15T05:55:27.690Z,965.8309326
2023-02-15T05:56:28.124Z,965.7857056
2023-02-15T05:57:28.545Z,965.8054199
2023-02-15T05:58:29.037Z,965.8113403
2023-02-15T05:59:29.467Z,965.7984619
2023-02-15T06:00:29.977Z,965.8426514
2023-02-15T06:01:30.447Z,965.8067017
2023-02-15T06:02:30.873Z,965.8108521
2023-02-15T06:03:31.397Z,965.7924805
2023-02-15T06:04:31.883Z,965.8161621
2023-02-15T06:05:32.318Z,965.8123169
2023-02-15T06:06:32.825Z,965.805603
2023-02-15T06:07:33.258Z,965.822998
2023-02-15T06:08:33.685Z,965.8503418
2023-02-15T06:09:34.126Z,965.8780518
2023-02-15T06:10:34.594Z,965.8552856
2023-02-15T06:11:35.072Z,965.8473511
2023-02-15T06:12:35.480Z,965.8615723
2023-02-15T06:13:38.597Z,965.8708496
2023-02-15T06:14:36.485Z,965.8840332
2023-02-15T06:15:36.999Z,965.8812256
2023-02-15T06:16:37.415Z,965.8323975
2023-02-15T06:17:37.870Z,965.8569336
2023-02-15T06:18:38.294Z,965.8972778
2023-02-15T06:19:39.594Z,965.8908691
2023-02-15T06:20:40.056Z,965.8626709
2023-02-15T06:21:41.035Z,965.921875
2023-02-15T06:22:41.448Z,965.920166
2023-02-15T06:23:41.935Z,965.9140015
2023-02-15T06:24:42.381Z,965.9035645
2023-02-15T06:25:42.826Z,965.9170532
2023-02-15T06:26:43.432Z,965.9138184
2023-02-15T06:27:43.882Z,965.9522705
2023-02-15T06:28:44.378Z,965.9770508
2023-02-15T06:29:44.832Z,965.9645386
2023-02-15T06:30:46.047Z,965.9938965
2023-02-15T06:31:46.647Z,965.9223633
2023-02-15T06:32:46.964Z,965.9353638
2023-02-15T06:33:47.496Z,965.9494019
2023-02-15T06:34:48.940Z,965.9882202
2023-02-15T06:35:48.431Z,965.942627
2023-02-15T06:36:48.905Z,965.9460449
2023-02-15T06:37:49.373Z,965.9654541
2023-02-15T06:38:49.935Z,965.9506226
2023-02-15T06:39:50.461Z,965.9782104
2023-02-15T06:41:22.060Z,966.0166626
2023-02-15T06:42:22.502Z,966.0371094
2023-02-15T06:43:23.014Z,966.026123
2023-02-15T06:44:23.547Z,966.0485229
2023-02-15T06:45:23.967Z,966.0610352
2023-02-15T06:46:24.598Z,966.0684204
2023-02-15T06:47:24.907Z,966.0697021
2023-02-15T06:48:25.373Z,966.1149902
2023-02-15T06:49:25.902Z,966.0811157
2023-02-15T06:50:27.277Z,966.0946655
2023-02-15T06:51:27.814Z,966.0739136
2023-02-15T06:52:28.234Z,966.1556396
2023-02-15T06:53:28.645Z,966.1289063
2023-02-15T06:54:29.174Z,966.1436157
2023-02-15T06:55:29.620Z,966.1290894
2023-02-15T06:56:30.157Z,966.1224365
2023-02-15T06:57:30.607Z,966.1347656
2023-02-15T06:58:31.037Z,966.1326294
2023-02-15T06:59:31.580Z,966.1159668
2023-02-15T07:00:32.845Z,966.130127
2023-02-15T07:01:33.308Z,966.133728
2023-02-15T07:02:33.961Z,966.1556396
2023-02-15T07:03:34.496Z,966.1292114
2023-02-15T07:04:35.016Z,966.1049805
2023-02-15T07:05:35.546Z,966.1015625
2023-02-15T07:06:36.310Z,966.0947876
2023-02-15T07:07:36.854Z,966.1027832
2023-02-15T07:08:37.306Z,966.0744019
2023-02-15T07:09:37.761Z,966.1262207
2023-02-15T07:10:39.274Z,966.0584106
2023-02-15T07:11:39.761Z,966.1090698
2023-02-15T07:12:40.289Z,966.078125
2023-02-15T07:13:41.467Z,966.0466919
2023-02-15T07:14:41.994Z,966.1009521
2023-02-15T07:15:42.577Z,966.0884399
2023-02-15T07:16:43.027Z,966.1063843
2023-02-15T07:17:43.544Z,966.0423584
2023-02-15T07:18:44.154Z,966.0917969
2023-02-15T07:19:45.028Z,966.0892334
2023-02-15T07:20:46.282Z,966.1226807
2023-02-15T07:21:46.795Z,966.0761719
2023-02-15T07:22:47.295Z,966.1235962
2023-02-15T07:23:47.752Z,966.1331177
2023-02-15T07:24:48.261Z,966.1465454
2023-02-15T07:25:49.279Z,966.1403198
2023-02-15T07:26:49.786Z,966.1557617
2023-02-15T07:27:50.234Z,966.1724243
2023-02-15T07:28:51.791Z,966.1994019
2023-02-15T07:30:22.592Z,966.1834106
2023-02-15T07:31:23.072Z,966.1975098
2023-02-15T07:32:23.619Z,966.1306763
2023-02-15T07:33:24.031Z,966.1387329
2023-02-15T07:34:24.789Z,966.1799316
2023-02-15T07:35:25.425Z,966.1702881
2023-02-15T07:36:26.122Z,966.1509399
2023-02-15T07:37:26.683Z,966.1877441
2023-02-15T07:38:27.748Z,966.1414795
2023-02-15T07:39:28.365Z,966.1546631
2023-02-15T07:40:28.892Z,966.1716919
2023-02-15T07:41:30.189Z,966.1277466
2023-02-15T07:42:30.757Z,966.1509399
2023-02-15T07:43:32.169Z,966.1479492
2023-02-15T07:44:32.671Z,966.1540527
2023-02-15T07:45:33.128Z,966.1569824
2023-02-15T07:46:33.742Z,966.1776733
2023-02-15T07:47:34.132Z,966.1409912
2023-02-15T07:48:34.663Z,966.1376343
2023-02-15T07:49:35.114Z,966.1154785
2023-02-15T07:50:36.255Z,966.1182861
2023-02-15T07:51:36.754Z,966.1048584
2023-02-15T07:52:37.783Z,966.0956421
2023-02-15T07:53:38.276Z,966.0725098
2023-02-15T07:54:38.710Z,966.0775146
2023-02-15T07:55:39.793Z,966.0460815
2023-02-15T07:56:40.251Z,966.0505371
2023-02-15T07:57:40.853Z,966.038147
2023-02-15T07:58:41.396Z,966.0168457
2023-02-15T07:59:41.873Z,965.9924927
2023-02-15T08:00:42.295Z,966.0083618
2023-02-15T08:01:43.545Z,966.0133057
2023-02-15T08:02:44.113Z,965.9902954
2023-02-15T08:03:44.668Z,965.9946899
2023-02-15T08:04:45.073Z,966.0240479
2023-02-15T08:05:45.493Z,966.0431519
2023-02-15T08:06:45.973Z,966.0762329
2023-02-15T08:07:46.438Z,966.0383301
2023-02-15T08:08:47.110Z,966.0327148
2023-02-15T08:09:47.597Z,966.0046997
2023-02-15T08:10:48.804Z,965.9923706
2023-02-15T08:11:49.303Z,965.9909668
2023-02-15T08:12:49.761Z,965.9866943
2023-02-15T08:13:50.796Z,965.9559937
2023-02-15T08:15:21.459Z,965.8943481
2023-02-15T08:16:22.065Z,965.8912354
2023-02-15T08:17:22.640Z,965.873291
2023-02-15T08:18:23.090Z,965.8742065
2023-02-15T08:19:23.560Z,965.8781128
2023-02-15T08:20:24.753Z,965.8071289
2023-02-15T08:21:25.815Z,965.8381958
2023-02-15T08:22:26.269Z,965.8137207
2023-02-15T08:23:26.786Z,965.8432617
2023-02-15T08:24:27.463Z,965.8218994
2023-02-15T08:25:28.024Z,965.8231201
2023-02-15T08:26:28.460Z,965.8817749
2023-02-15T08:27:29.098Z,965.8989868
2023-02-15T08:28:29.615Z,965.855957
2023-02-15T08:29:30.038Z,965.9012451
2023-02-15T08:30:30.702Z,965.8811035
2023-02-15T08:31:31.918Z,965.8731079
2023-02-15T08:32:32.277Z,965.9109497
2023-02-15T08:33:32.751Z,965.8806152
2023-02-15T08:34:33.245Z,965.9250488
2023-02-15T08:35:33.779Z,965.8128052
2023-02-15T08:36:34.197Z,965.8382568
2023-02-15T08:37:34.671Z,965.8206177
2023-02-15T08:38:35.233Z,965.8328247
2023-02-15T08:39:35.684Z,965.7913818
2023-02-15T08:40:36.228Z,965.7849731
2023-02-15T08:41:37.465Z,965.782959
2023-02-15T08:42:37.921Z,965.7531128
2023-02-15T08:43:38.510Z,965.7373657
2023-02-15T08:44:38.964Z,965.7315674
2023-02-15T08:45:39.550Z,965.7120972
2023-02-15T08:46:39.968Z,965.6965332
2023-02-15T08:47:40.679Z,965.6781006
2023-02-15T08:48:41.141Z,965.6313477
2023-02-15T08:49:41.611Z,965.6425781
2023-02-15T08:50:42.108Z,965.6088867
2023-02-15T08:51:43.483Z,965.6338501
2023-02-15T08:52:43.976Z,965.5826416
2023-02-15T08:53:44.528Z,965.5758057
2023-02-15T08:54:45.005Z,965.5583496
2023-02-15T08:55:45.444Z,965.5704956
2023-02-15T08:56:46.068Z,965.5675049
2023-02-15T08:57:46.636Z,965.5825806
2023-02-15T08:58:47.273Z,965.5488281
2023-02-15T08:59:47.762Z,965.5546875
2023-02-15T09:00:48.375Z,965.5701294
2023-02-15T09:01:49.701Z,965.5895386
2023-02-15T09:03:20.697Z,965.543457
2023-02-15T09:04:21.172Z,965.4904785
2023-02-15T09:05:21.783Z,965.5049438
2023-02-15T09:06:22.224Z,965.5429688
2023-02-15T09:07:22.698Z,965.5307617
2023-02-15T09:08:23.317Z,965.5018921
2023-02-15T09:09:23.887Z,965.5512695
2023-02-15T09:10:24.347Z,965.5546875
2023-02-15T09:11:25.778Z,965.538147
2023-02-15T09:12:26.285Z,965.5440063
2023-02-15T09:13:26.747Z,965.5616455
2023-02-15T09:14:27.274Z,965.569397
2023-02-15T09:15:27.783Z,965.5437622
2023-02-15T09:16:28.440Z,965.5686035
2023-02-15T09:17:28.960Z,965.5385742
2023-02-15T09:18:29.394Z,965.5546265
2023-02-15T09:19:29.920Z,965.5401611
2023-02-15T09:20:31.302Z,965.5829468
2023-02-15T09:21:32.783Z,965.5907593
2023-02-15T09:22:33.222Z,965.5856323
2023-02-15T09:23:33.706Z,965.5736084
2023-02-15T09:24:34.227Z,965.56073
2023-02-15T09:25:34.866Z,965.56604
2023-02-15T09:26:35.398Z,965.6118774
2023-02-15T09:27:35.841Z,965.5831299
2023-02-15T09:28:36.364Z,965.5959473
2023-02-15T09:29:36.887Z,965.5981445
2023-02-15T09:30:37.628Z,965.6300049
2023-02-15T09:31:38.789Z,965.5640869
2023-02-15T09:32:39.338Z,965.5465698
2023-02-15T09:33:40.028Z,965.5401001
2023-02-15T09:34:40.690Z,965.5496826
2023-02-15T09:35:41.153Z,965.4682617
2023-02-15T09:36:42.636Z,965.4953003
2023-02-15T09:37:43.145Z,965.4887695
2023-02-15T09:38:43.606Z,965.4632568
2023-02-15T09:39:44.167Z,965.4820557
2023-02-15T09:40:44.772Z,965.498291
2023-02-15T09:41:45.748Z,965.4634399
2023-02-15T09:42:46.305Z,965.4282837
2023-02-15T09:43:46.768Z,965.4084473
2023-02-15T09:44:47.773Z,965.3657227
2023-02-15T09:45:48.316Z,965.4064941
2023-02-15T09:46:48.787Z,965.3443604
2023-02-15T09:48:19.897Z,965.348877
2023-02-15T09:49:20.367Z,965.3713989
2023-02-15T09:50:21.741Z,965.3531494
2023-02-15T09:51:22.246Z,965.3272095
2023-02-15T09:52:23.763Z,965.3490601
2023-02-15T09:53:24.211Z,965.3873291
2023-02-15T09:54:24.676Z,965.3345337
2023-02-15T09:55:25.355Z,965.3361206
2023-02-15T09:56:26.070Z,965.3311157
2023-02-15T09:57:26.685Z,965.3651733
2023-02-15T09:58:28.330Z,965.3577881
2023-02-15T09:59:28.926Z,965.3329468
2023-02-15T10:00:29.449Z,965.3496704
2023-02-15T10:01:30.137Z,965.3287354
2023-02-15T10:02:31.642Z,965.3201294
2023-02-15T10:03:32.263Z,965.3026733
2023-02-15T10:04:32.872Z,965.2768555
2023-02-15T10:05:33.391Z,965.2709351
2023-02-15T10:06:33.960Z,965.2320557
2023-02-15T10:07:34.692Z,965.2616577
2023-02-15T10:08:35.120Z,965.2496338
2023-02-15T10:09:35.756Z,965.2296753
2023-02-15T10:10:36.322Z,965.2234497
2023-02-15T10:11:36.915Z,965.2019043
2023-02-15T10:12:38.278Z,965.1967163
2023-02-15T10:13:38.855Z,965.196106
2023-02-15T10:14:39.445Z,965.1914063
2023-02-15T10:15:40.018Z,965.184082
2023-02-15T10:16:41.067Z,965.1707764
2023-02-15T10:17:41.631Z,965.1661987
2023-02-15T10:18:45.022Z,965.1602173
2023-02-15T10:19:45.635Z,965.161499
2023-02-15T10:20:46.799Z,965.1431274
2023-02-15T10:21:47.311Z,965.1716919
2023-02-15T10:22:48.703Z,965.1590576
2023-02-15T10:24:19.643Z,965.1265869
2023-02-15T10:25:20.172Z,965.1116943
2023-02-15T10:26:20.722Z,965.1107788
2023-02-15T10:27:21.340Z,965.1071777
2023-02-15T10:28:22.832Z,965.1504517
2023-02-15T10:29:23.422Z,965.1065674
2023-02-15T10:30:24.073Z,965.1289673
2023-02-15T10:31:24.791Z,965.0593872
2023-02-15T10:32:26.293Z,965.0960083
2023-02-15T10:33:26.857Z,965.0856323
2023-02-15T10:34:27.459Z,965.0680542
2023-02-15T10:35:27.980Z,965.0197144
2023-02-15T10:36:28.526Z,965.0348511
2023-02-15T10:37:29.013Z,964.9918213
2023-02-15T10:38:29.598Z,964.9921875
2023-02-15T10:39:30.205Z,964.9845581
2023-02-15T10:40:30.805Z,964.928894
2023-02-15T10:41:31.410Z,964.9556274
2023-02-15T10:42:32.581Z,964.9572144
2023-02-15T10:43:33.212Z,964.9453125
2023-02-15T10:44:33.757Z,964.9301758
2023-02-15T10:45:35.302Z,964.8566895
2023-02-15T10:46:35.954Z,964.9057007
2023-02-15T10:47:36.445Z,964.8781738
2023-02-15T10:48:37.153Z,964.8345337
2023-02-15T10:49:37.692Z,964.8144531
2023-02-15T10:50:38.241Z,964.7957764
2023-02-15T10:51:38.740Z,964.8151855
2023-02-15T10:52:40.069Z,964.8015747
2023-02-15T10:53:40.872Z,964.8240356
2023-02-15T10:54:41.466Z,964.8269043
2023-02-15T10:55:42.633Z,964.7896118
2023-02-15T10:56:43.363Z,964.7781372
2023-02-15T10:57:43.892Z,964.763916
2023-02-15T10:58:45.337Z,964.7220459
2023-02-15T10:59:45.931Z,964.7331543
2023-02-15T11:00:46.544Z,964.6400146
2023-02-15T11:01:47.348Z,964.619873
2023-02-15T11:03:19.215Z,964.6242065